METAR AND TAF INFORMATION
METAR FOR KDBQ
ADDS - METARS form results

(0857 UTC 20 October 2019)
Data provider http://aviationweather.gov/metar/data/
 
METAR text: KDBQ 200853Z AUTO 00000KT 1SM R36/1200V4500FT BR VV001 03/02 A2982 RMK AO2 SLP103 T00280017 51005 $
Conditions at: KDBQ (DUBUQUE , IA, US) observed 0853 UTC 20 October 2019
Temperature: 2.8°C (37°F)
Dewpoint: 1.7°C (35°F) [RH = 92%]
Pressure (altimeter): 29.82 inches Hg (1009.9 mb)
[Sea-level pressure: 1010.3 mb]
Winds: calm
Visibility: 1.00 miles (1.61 km)
Ceiling: indefinite ceiling with vertical visibility of 100 feet AGL
Clouds: obscured sky
Weather: BR  (mist)
SOME DATA ABOVE MAY BE INACCURATE!!!
"$" is an indication the sensor requires maintenance

METAR text: KDBQ 200845Z AUTO 00000KT 2 1/2SM R36/1400V2600FT BR FEW002 03/02 A2982 RMK AO2 VIS 1 1/2V5 T00280017 $
Conditions at: KDBQ (DUBUQUE , IA, US) observed 0845 UTC 20 October 2019
Temperature: 2.8°C (37°F)
Dewpoint: 1.7°C (35°F) [RH = 92%]
Pressure (altimeter): 29.82 inches Hg (1009.9 mb)
Winds: calm
Visibility: 2.50 miles (4.02 km)
Ceiling: at least 12,000 feet AGL
Clouds: few clouds at 200 feet AGL
Weather: BR  (mist)
SOME DATA ABOVE MAY BE INACCURATE!!!
"$" is an indication the sensor requires maintenance

METAR text: KDBQ 200820Z AUTO 00000KT 1 3/4SM R36/4500VP6000FT BR CLR 03/02 A2982 RMK AO2 VIS 1V4 T00280022 $
Conditions at: KDBQ (DUBUQUE , IA, US) observed 0820 UTC 20 October 2019
Temperature: 2.8°C (37°F)
Dewpoint: 2.2°C (36°F) [RH = 96%]
Pressure (altimeter): 29.82 inches Hg (1009.9 mb)
Winds: calm
Visibility: 1.75 miles (2.82 km)
Ceiling: at least 12,000 feet AGL
Clouds: sky clear below 12,000 feet AGL
Weather: BR  (mist)
SOME DATA ABOVE MAY BE INACCURATE!!!
"$" is an indication the sensor requires maintenance

Forecast for: KDBQ (DUBUQUE , IA, US)
Text: KDBQ 200520Z 2006/2106 VRB03KT 1/4SM FG VV001
Forecast period: 0600 to 1600 UTC 20 October 2019
Forecast type: FROM: standard forecast or significant change
Winds: variable direction winds at 3 MPH (3 knots; 1.5 m/s)
Visibility: 0.25 miles (0.40 km)
Ceiling: indefinite ceiling with vertical visibility of 100 feet AGL
Clouds: obscured sky
Weather: FG  (fog)
Text: FM201600 VRB03KT P6SM SCT150
Forecast period: 1600 UTC 20 October 2019 to 0600 UTC 21 October 2019
Forecast type: FROM: standard forecast or significant change
Winds: variable direction winds at 3 MPH (3 knots; 1.5 m/s)
Visibility: 6 or more miles 10+ km)
Ceiling: at least 12,000 feet AGL
Clouds: scattered clouds at 15000 feet AGL
Weather: no significant weather forecast for this period

 AIRPORT MAP

 RUNWAY INFORMATION
Runway 13 Runway length 6502 ft Runway width 100 ft
Runway elevation 1077 ft Runway displaced threshold 0 ft Runway heading 135
Runway 31 Runway length 6502 ft Runway width 100 ft
Runway elevation 1062 ft Runway displaced threshold 0 ft Runway heading 315
Runway 18 Runway length 6327 ft Runway width 150 ft
Runway elevation 1073 ft Runway displaced threshold 0 ft Runway heading 180
Runway 36 Runway length 6327 ft Runway width 150 ft
Runway elevation 1033 ft Runway displaced threshold 0 ft Runway heading 360

 AIRPORT FREQUENCIES
Type ATIS Name ATIS Frequency 127.25 MHZ
Type CNTR Name CHICAGO CN Frequency 127 MHZ
Type CTAF Name CTAF Frequency 119.5 MHZ
Type GND Name GND Frequency 121.8 MHZ
Type RDO Name FORT DODGE Frequency 122.05 MHZ
Type TWR Name TWR Frequency 119.5 MHZ
Type UNIC Name UNICOM Frequency 122.95 MHZ

 AIRPORT NEAR NAVIGATION AIDS
Type NDB Name Zilom Frequency 341 KHZ
Type VORTAC Name Dubuque Frequency 115800 KHZ



Copyright © 2019 Cape Air Virtual

CMS powered by VAM [v2.6.2]